createdAt,value
2022-10-11T00:01:16.486Z,12.45
2022-10-11T00:03:51.957Z,11.10
2022-10-11T00:06:25.891Z,11.38
2022-10-11T00:08:59.851Z,10.30
2022-10-11T00:11:34.080Z,9.50
2022-10-11T00:14:08.401Z,8.05
2022-10-11T00:16:44.613Z,10.77
2022-10-11T00:19:20.141Z,8.73
2022-10-11T00:21:54.055Z,10.10
2022-10-11T00:24:28.132Z,8.88
2022-10-11T00:27:02.014Z,11.80
2022-10-11T00:29:36.009Z,13.55
2022-10-11T00:32:09.914Z,9.75
2022-10-11T00:34:45.478Z,11.35
2022-10-11T00:37:19.740Z,10.60
2022-10-11T00:39:54.290Z,9.88
2022-10-11T00:42:28.637Z,11.90
2022-10-11T00:45:36.156Z,10.23
2022-10-11T00:48:16.407Z,11.05
2022-10-11T00:50:51.932Z,9.65
2022-10-11T00:53:26.923Z,10.23
2022-10-11T00:56:04.482Z,9.38
2022-10-11T00:58:40.001Z,9.55
2022-10-11T01:01:14.202Z,10.20
2022-10-11T01:03:48.477Z,11.98
2022-10-11T01:06:24.111Z,10.10
2022-10-11T01:08:58.369Z,11.15
2022-10-11T01:11:33.302Z,14.93
2022-10-11T01:14:48.263Z,10.65
2022-10-11T01:17:26.555Z,11.63
2022-10-11T01:20:25.406Z,9.52
2022-10-11T01:23:46.842Z,11.13
2022-10-11T01:26:54.113Z,11.43
2022-10-11T01:29:42.407Z,8.95
2022-10-11T01:32:20.709Z,11.70
2022-10-11T01:34:59.996Z,9.07
2022-10-11T01:37:38.348Z,9.77
2022-10-11T01:40:17.115Z,8.77
2022-10-11T01:42:52.035Z,7.35
2022-10-11T01:45:26.874Z,8.95
2022-10-11T01:48:08.143Z,10.45
2022-10-11T01:50:45.478Z,9.05
2022-10-11T01:53:55.692Z,9.13
2022-10-11T01:57:07.683Z,9.60
2022-10-11T01:59:51.842Z,11.57
2022-10-11T02:05:12.733Z,9.27
2022-10-11T02:07:53.143Z,8.95
2022-10-11T02:10:33.752Z,6.55
2022-10-11T02:13:13.577Z,8.98
2022-10-11T02:15:49.827Z,7.22
2022-10-11T02:18:27.265Z,7.82
2022-10-11T02:21:06.102Z,8.00
2022-10-11T02:23:44.199Z,7.78
2022-10-11T02:26:19.507Z,7.70
2022-10-11T02:28:57.435Z,9.73
2022-10-11T02:31:36.008Z,6.90
2022-10-11T02:34:16.294Z,7.05
2022-10-11T02:36:59.840Z,7.18
2022-10-11T02:39:43.507Z,9.40
2022-10-11T02:42:21.953Z,10.20
2022-10-11T02:45:01.043Z,8.48
2022-10-11T02:47:36.032Z,7.50
2022-10-11T02:50:12.425Z,6.90
2022-10-11T02:52:47.815Z,9.43
2022-10-11T02:55:22.113Z,5.30
2022-10-11T02:57:56.147Z,6.65
2022-10-11T03:00:30.372Z,6.72
2022-10-11T03:03:04.480Z,6.50
2022-10-11T03:05:40.897Z,7.55
2022-10-11T03:08:17.699Z,8.88
2022-10-11T03:10:51.746Z,6.20
2022-10-11T03:13:25.842Z,9.05
2022-10-11T03:16:03.558Z,7.18
2022-10-11T03:18:37.900Z,5.97
2022-10-11T03:21:12.330Z,6.15
2022-10-11T03:23:47.872Z,9.60
2022-10-11T03:26:21.863Z,5.20
2022-10-11T03:28:55.811Z,6.63
2022-10-11T03:31:29.721Z,5.32
2022-10-11T03:36:37.140Z,8.37
2022-10-11T03:39:12.452Z,7.20
2022-10-11T03:41:46.386Z,6.03
2022-10-11T03:44:20.237Z,5.85
2022-10-11T03:49:27.661Z,7.80
2022-10-11T03:52:02.088Z,7.97
2022-10-11T03:54:37.404Z,4.55
2022-10-11T03:57:11.440Z,6.10
2022-10-11T03:59:45.354Z,8.98
2022-10-11T04:02:19.199Z,5.50
2022-10-11T04:07:26.712Z,6.33
2022-10-11T04:10:02.028Z,5.63
2022-10-11T04:12:36.149Z,6.40
2022-10-11T04:15:12.759Z,7.40
2022-10-11T04:17:46.660Z,6.57
2022-10-11T04:20:20.651Z,4.95
2022-10-11T04:22:54.519Z,5.85
2022-10-11T04:28:03.524Z,9.10
2022-10-11T04:30:37.529Z,5.20
2022-10-11T04:33:12.941Z,5.85
2022-10-11T04:35:47.480Z,5.60
2022-10-11T04:38:21.492Z,5.28
2022-10-11T04:40:57.021Z,5.22
2022-10-11T04:43:31.342Z,7.03
2022-10-11T04:46:06.152Z,9.45
2022-10-11T04:48:40.533Z,5.13
2022-10-11T04:51:14.619Z,5.75
2022-10-11T04:53:49.392Z,7.60
2022-10-11T04:56:24.914Z,8.38
2022-10-11T04:58:58.979Z,4.32
2022-10-11T05:01:33.079Z,5.15
2022-10-11T05:04:07.403Z,5.13
2022-10-11T05:06:41.521Z,5.90
2022-10-11T05:09:15.587Z,5.10
2022-10-11T05:11:51.131Z,5.50
2022-10-11T05:14:25.249Z,8.25
2022-10-11T05:16:59.459Z,9.10
2022-10-11T05:19:33.549Z,7.97
2022-10-11T05:22:07.527Z,7.80
2022-10-11T05:24:41.583Z,7.43
2022-10-11T05:27:17.093Z,6.55
2022-10-11T05:29:51.162Z,10.68
2022-10-11T05:32:27.857Z,10.70
2022-10-11T05:35:02.175Z,16.92
2022-10-11T05:37:36.291Z,6.80
2022-10-11T05:40:11.795Z,14.18
2022-10-11T05:42:47.250Z,13.23
2022-10-11T05:45:21.364Z,12.35
2022-10-11T05:47:55.492Z,11.40
2022-10-11T05:50:29.507Z,15.07
2022-10-11T05:53:03.492Z,9.18
2022-10-11T05:55:38.483Z,14.93
2022-10-11T05:58:17.438Z,20.30
2022-10-11T06:00:51.420Z,10.00
2022-10-11T06:03:25.773Z,9.25
2022-10-11T06:06:03.708Z,11.82
2022-10-11T06:08:37.801Z,7.60
2022-10-11T06:11:13.767Z,13.23
2022-10-11T06:13:49.153Z,14.27
2022-10-11T06:16:23.075Z,15.40
2022-10-11T06:18:58.026Z,14.52
2022-10-11T06:21:33.009Z,13.52
2022-10-11T06:24:09.382Z,11.90
2022-10-11T06:26:43.257Z,15.50
2022-10-11T06:29:18.618Z,10.15
2022-10-11T06:31:52.506Z,11.20
2022-10-11T06:34:26.469Z,19.55
2022-10-11T06:37:00.367Z,11.13
2022-10-11T06:39:34.599Z,26.45
2022-10-11T06:42:08.476Z,20.90
2022-10-11T06:44:43.886Z,17.13
2022-10-11T06:47:17.871Z,15.40
2022-10-11T06:49:51.756Z,17.52
2022-10-11T06:52:41.123Z,14.68
2022-10-11T06:55:15.350Z,16.17
2022-10-11T06:57:49.259Z,13.73
2022-10-11T07:00:24.576Z,8.88
2022-10-11T07:02:58.563Z,22.70
2022-10-11T07:05:34.915Z,8.93
2022-10-11T07:08:08.835Z,11.57
2022-10-11T07:10:42.729Z,13.70
2022-10-11T07:13:17.450Z,18.80
2022-10-11T07:15:52.793Z,11.98
2022-10-11T07:18:26.727Z,13.82
2022-10-11T07:23:34.847Z,9.80
2022-10-11T07:26:10.706Z,13.50
2022-10-11T07:28:44.901Z,14.02
2022-10-11T07:31:23.128Z,9.20
2022-10-11T07:33:57.448Z,16.25
2022-10-11T07:36:31.646Z,11.70
2022-10-11T07:39:07.418Z,13.40
2022-10-11T07:41:45.643Z,10.57
2022-10-11T07:44:20.171Z,12.30
2022-10-11T07:46:55.781Z,7.97
2022-10-11T07:49:29.928Z,17.83
2022-10-11T07:52:03.966Z,16.17
2022-10-11T07:54:40.264Z,15.40
2022-10-11T07:57:15.213Z,10.13
2022-10-11T07:59:50.379Z,14.73
2022-10-11T08:02:26.054Z,14.13
2022-10-11T08:05:00.027Z,13.45
2022-10-11T08:07:34.744Z,14.23
2022-10-11T08:10:10.566Z,14.23
2022-10-11T08:12:45.094Z,19.33
2022-10-11T08:15:20.149Z,10.10
2022-10-11T08:17:56.148Z,14.05
2022-10-11T08:20:31.336Z,13.50
2022-10-11T08:23:05.527Z,12.52
2022-10-11T08:25:40.991Z,13.98
2022-10-11T08:28:17.915Z,11.73
2022-10-11T08:30:53.908Z,14.63
2022-10-11T08:33:29.683Z,19.50
2022-10-11T08:36:06.974Z,13.90
2022-10-11T08:38:42.065Z,16.23
2022-10-11T08:41:27.916Z,13.85
2022-10-11T08:44:18.630Z,16.08
2022-10-11T08:47:00.660Z,20.40
2022-10-11T08:49:36.944Z,13.57
2022-10-11T08:52:16.399Z,13.57
2022-10-11T08:54:57.308Z,10.77
2022-10-11T08:57:36.630Z,15.55
2022-10-11T09:00:18.438Z,14.98
2022-10-11T09:03:09.274Z,16.25
2022-10-11T09:06:09.475Z,10.15
2022-10-11T09:08:55.330Z,9.82
2022-10-11T09:11:40.781Z,8.95
2022-10-11T09:14:40.731Z,13.25
2022-10-11T09:17:24.080Z,11.25
2022-10-11T09:20:23.346Z,14.55
2022-10-11T09:23:05.509Z,14.80
2022-10-11T09:25:47.064Z,9.82
2022-10-11T09:28:29.492Z,15.15
2022-10-11T09:31:03.649Z,12.10
2022-10-11T09:33:41.640Z,13.38
2022-10-11T09:36:24.386Z,10.57
2022-10-11T09:39:07.305Z,282.42
2022-10-11T09:41:50.514Z,173.95
2022-10-11T09:44:27.302Z,394.90
2022-10-11T09:47:01.924Z,536.33
2022-10-11T09:49:40.332Z,529.83
2022-10-11T09:52:18.479Z,518.03
2022-10-11T09:54:56.180Z,471.92
2022-10-11T09:57:32.485Z,458.65
2022-10-11T10:00:09.238Z,428.95
2022-10-11T10:02:49.524Z,433.00
2022-10-11T10:05:25.415Z,381.75
2022-10-11T10:08:22.729Z,348.92
2022-10-11T10:11:04.732Z,318.88
2022-10-11T10:13:44.751Z,331.15
2022-10-11T10:16:25.158Z,295.90
2022-10-11T10:19:01.839Z,274.85
2022-10-11T10:21:39.445Z,269.67
2022-10-11T10:24:22.057Z,238.48
2022-10-11T10:27:18.372Z,224.30
2022-10-11T10:30:13.287Z,208.65
2022-10-11T10:32:54.110Z,197.48
2022-10-11T10:35:34.297Z,179.75
2022-10-11T10:38:16.992Z,188.82
2022-10-11T10:40:53.700Z,165.27
2022-10-11T10:43:34.165Z,152.60
2022-10-11T10:46:21.257Z,145.77
2022-10-11T10:49:34.575Z,157.65
2022-10-11T10:52:07.171Z,116.20
2022-10-11T10:54:51.550Z,113.45
2022-10-11T10:57:30.375Z,100.85
2022-10-11T11:00:14.461Z,92.65
2022-10-11T11:05:35.054Z,74.25
2022-10-11T11:08:17.168Z,60.00
2022-10-11T11:11:00.433Z,59.60
2022-10-11T11:13:41.599Z,56.40
2022-10-11T11:16:23.542Z,40.80
2022-10-11T11:19:08.504Z,48.00
2022-10-11T11:21:49.561Z,47.65
2022-10-11T11:24:36.467Z,38.67
2022-10-11T11:27:18.073Z,35.67
2022-10-11T11:29:58.152Z,33.10
2022-10-11T11:32:45.705Z,37.65
2022-10-11T11:35:27.469Z,33.90
2022-10-11T11:38:06.669Z,33.03
2022-10-11T11:40:45.211Z,27.05
2022-10-11T11:43:25.005Z,31.02
2022-10-11T11:46:02.602Z,28.48
2022-10-11T11:48:38.858Z,22.45
2022-10-11T11:51:18.020Z,20.67
2022-10-11T11:53:59.612Z,20.38
2022-10-11T11:56:50.054Z,24.27
2022-10-11T11:59:30.087Z,21.65
2022-10-11T12:02:29.925Z,18.27
2022-10-11T12:05:08.209Z,15.85
2022-10-11T12:07:55.754Z,16.77
2022-10-11T12:10:41.005Z,16.25
2022-10-11T12:13:21.501Z,16.92
2022-10-11T12:16:02.941Z,17.92
2022-10-11T12:18:48.359Z,17.67
2022-10-11T12:21:30.444Z,12.15
2022-10-11T12:24:12.881Z,15.02
2022-10-11T12:26:48.030Z,12.63
2022-10-11T12:29:49.320Z,11.82
2022-10-11T12:32:52.172Z,12.95
2022-10-11T12:35:57.649Z,11.50
2022-10-11T12:38:35.443Z,13.40
2022-10-11T12:41:50.461Z,10.75
2022-10-11T12:44:26.615Z,10.52
2022-10-11T12:47:32.926Z,11.35
2022-10-11T12:50:20.122Z,10.10
2022-10-11T12:53:01.700Z,9.95
2022-10-11T12:55:50.193Z,8.68
2022-10-11T12:58:40.630Z,10.02
2022-10-11T13:01:22.258Z,8.75
2022-10-11T13:04:06.549Z,9.77
2022-10-11T13:09:28.523Z,7.30
2022-10-11T13:12:07.715Z,9.07
2022-10-11T13:14:46.354Z,7.85
2022-10-11T13:17:23.313Z,7.80
2022-10-11T13:20:02.133Z,6.70
2022-10-11T13:22:39.593Z,8.27
2022-10-11T13:25:18.154Z,7.60
2022-10-11T13:27:55.752Z,7.95
2022-10-11T13:30:33.460Z,7.68
2022-10-11T13:33:14.992Z,7.65
2022-10-11T13:35:49.763Z,9.85
2022-10-11T13:38:27.460Z,7.60
2022-10-11T13:41:05.444Z,11.82
2022-10-11T13:43:41.499Z,9.00
2022-10-11T13:46:22.101Z,8.55
2022-10-11T13:49:00.780Z,6.25
2022-10-11T13:51:36.943Z,8.93
2022-10-11T13:54:13.935Z,10.65
2022-10-11T13:56:51.066Z,6.63
2022-10-11T13:59:28.377Z,8.77
2022-10-11T14:02:04.595Z,10.15
2022-10-11T14:04:42.055Z,11.15
2022-10-11T14:07:27.805Z,7.35
2022-10-11T14:10:01.930Z,11.65
2022-10-11T14:12:39.966Z,7.18
2022-10-11T14:15:28.850Z,9.55
2022-10-11T14:18:23.464Z,9.88
2022-10-11T14:23:32.966Z,7.95
2022-10-11T14:26:07.563Z,13.15
2022-10-11T14:28:42.303Z,12.65
2022-10-11T14:31:16.401Z,8.20
2022-10-11T14:33:50.559Z,9.60
2022-10-11T14:36:26.651Z,15.23
2022-10-11T14:39:00.582Z,14.93
2022-10-11T14:41:34.473Z,7.57
2022-10-11T14:44:08.446Z,6.30
2022-10-11T14:46:42.864Z,9.23
2022-10-11T14:49:19.014Z,6.80
2022-10-11T14:51:56.399Z,11.73
2022-10-11T14:54:31.849Z,8.40
2022-10-11T14:57:07.541Z,13.68
2022-10-11T14:59:41.816Z,18.95
2022-10-11T15:02:15.783Z,17.13
2022-10-11T15:04:49.746Z,6.28
2022-10-11T15:07:25.180Z,8.38
2022-10-11T15:09:59.147Z,13.50
2022-10-11T15:12:33.163Z,10.50
2022-10-11T15:15:07.660Z,10.35
2022-10-11T15:17:41.671Z,11.43
2022-10-11T15:20:21.892Z,11.63
2022-10-11T15:22:57.842Z,18.10
2022-10-11T15:25:31.925Z,13.52
2022-10-11T15:28:06.420Z,9.55
2022-10-11T15:30:41.872Z,10.57
2022-10-11T15:33:15.854Z,12.23
2022-10-11T15:35:49.895Z,10.80
2022-10-11T15:38:26.588Z,11.02
2022-10-11T15:41:00.822Z,12.40
2022-10-11T15:43:35.293Z,15.25
2022-10-11T15:46:09.816Z,11.75
2022-10-11T15:48:43.946Z,12.82
2022-10-11T15:51:18.577Z,11.02
2022-10-11T15:53:53.956Z,14.30
2022-10-11T15:56:32.965Z,11.77
2022-10-11T15:59:07.704Z,18.58
2022-10-11T16:01:41.755Z,28.02
2022-10-11T16:04:15.702Z,12.50
2022-10-11T16:06:49.613Z,20.10
2022-10-11T16:09:25.055Z,11.00
2022-10-11T16:11:59.383Z,18.23
2022-10-11T16:14:33.405Z,16.50
2022-10-11T16:17:07.316Z,16.38
2022-10-11T16:19:41.247Z,20.15
2022-10-11T16:22:15.897Z,17.02
2022-10-11T16:24:51.311Z,12.77
2022-10-11T16:27:25.324Z,15.63
2022-10-11T16:29:59.689Z,20.60
2022-10-11T16:32:34.261Z,16.35
2022-10-11T16:35:09.819Z,14.35
2022-10-11T16:37:44.147Z,15.60
2022-10-11T16:40:21.460Z,17.25
2022-10-11T16:42:55.385Z,14.60
2022-10-11T16:45:29.347Z,18.65
2022-10-11T16:48:04.170Z,15.63
2022-10-11T16:50:39.809Z,18.58
2022-10-11T16:53:15.758Z,31.25
2022-10-11T16:55:51.115Z,28.70
2022-10-11T16:58:25.484Z,35.20
2022-10-11T17:00:59.610Z,27.20
2022-10-11T17:03:33.863Z,30.13
2022-10-11T17:06:09.195Z,33.88
2022-10-11T17:08:43.653Z,35.17
2022-10-11T17:11:20.403Z,36.17
2022-10-11T17:13:55.078Z,41.92
2022-10-11T17:16:29.157Z,49.45
2022-10-11T17:19:03.407Z,42.13
2022-10-11T17:21:37.378Z,52.78
2022-10-11T17:24:11.464Z,48.85
2022-10-11T17:26:46.954Z,45.85
2022-10-11T17:29:22.173Z,47.70
2022-10-11T17:31:56.990Z,46.55
2022-10-11T17:34:31.158Z,45.85
2022-10-11T17:37:06.340Z,44.65
2022-10-11T17:39:40.453Z,48.88
2022-10-11T17:42:16.265Z,33.72
2022-10-11T17:44:50.203Z,47.13
2022-10-11T17:47:24.250Z,42.33
2022-10-11T17:49:58.448Z,37.17
2022-10-11T17:52:32.716Z,39.78
2022-10-11T17:55:06.986Z,42.55
2022-10-11T17:57:42.705Z,39.13
2022-10-11T18:00:17.855Z,41.25
2022-10-11T18:02:53.476Z,36.63
2022-10-11T18:05:28.358Z,40.53
2022-10-11T18:08:02.320Z,36.63
2022-10-11T18:10:37.115Z,35.67
2022-10-11T18:13:15.346Z,32.22
2022-10-11T18:15:53.445Z,37.50
2022-10-11T18:18:27.677Z,35.95
2022-10-11T18:21:01.894Z,32.75
2022-10-11T18:23:38.266Z,32.13
2022-10-11T18:26:13.881Z,35.88
2022-10-11T18:28:50.088Z,28.75
2022-10-11T18:31:25.721Z,33.35
2022-10-11T18:34:00.927Z,36.10
2022-10-11T18:36:35.424Z,34.20
2022-10-11T18:39:10.993Z,33.08
2022-10-11T18:41:45.599Z,35.60
2022-10-11T18:44:21.064Z,30.67
2022-10-11T18:46:55.836Z,40.40
2022-10-11T18:49:30.098Z,30.40
2022-10-11T18:52:04.101Z,31.35
2022-10-11T18:54:39.375Z,35.67
2022-10-11T18:57:13.363Z,30.00
2022-10-11T18:59:48.760Z,27.83
2022-10-11T19:02:22.690Z,32.72
2022-10-11T19:04:56.638Z,30.75
2022-10-11T19:07:30.638Z,33.03
2022-10-11T19:10:04.792Z,26.67
2022-10-11T19:12:38.720Z,31.02
2022-10-11T19:15:14.245Z,29.17
2022-10-11T19:17:48.305Z,28.23
2022-10-11T19:20:22.411Z,27.85
2022-10-11T19:22:56.360Z,28.65
2022-10-11T19:25:30.677Z,28.35
2022-10-11T19:28:04.940Z,30.33
2022-10-11T19:30:41.042Z,28.90
2022-10-11T19:33:15.372Z,27.45
2022-10-11T19:35:56.573Z,29.50
2022-10-11T19:38:30.739Z,26.40
2022-10-11T19:41:06.320Z,33.60
2022-10-11T19:43:40.794Z,36.70
2022-10-11T19:46:27.316Z,28.90
2022-10-11T19:49:12.174Z,28.83
2022-10-11T19:51:46.668Z,29.88
2022-10-11T19:54:20.673Z,31.30
2022-10-11T19:56:54.804Z,32.53
2022-10-11T19:59:28.966Z,29.45
2022-10-11T20:02:04.432Z,30.33
2022-10-11T20:04:54.036Z,30.38
2022-10-11T20:07:28.169Z,26.30
2022-10-11T20:10:02.431Z,25.02
2022-10-11T20:12:36.649Z,27.75
2022-10-11T20:15:11.594Z,28.02
2022-10-11T20:17:50.186Z,29.65
2022-10-11T20:20:24.234Z,23.58
2022-10-11T20:22:58.210Z,27.02
2022-10-11T20:25:32.495Z,24.10
2022-10-11T20:28:06.536Z,21.48
2022-10-11T20:30:43.749Z,25.65
2022-10-11T20:33:19.250Z,25.85
2022-10-11T20:36:01.002Z,26.45
2022-10-11T20:38:37.424Z,25.48
2022-10-11T20:41:13.186Z,24.75
2022-10-11T20:43:48.405Z,25.63
2022-10-11T20:46:24.463Z,25.98
2022-10-11T20:49:02.400Z,23.13
2022-10-11T20:51:39.051Z,24.90
2022-10-11T20:54:14.025Z,26.30
2022-10-11T20:56:48.592Z,23.02
2022-10-11T20:59:22.860Z,23.85
2022-10-11T21:01:56.961Z,22.83
2022-10-11T21:04:32.510Z,25.63
2022-10-11T21:07:06.863Z,20.65
2022-10-11T21:09:41.040Z,25.20
2022-10-11T21:12:15.690Z,24.60
2022-10-11T21:14:49.691Z,29.80
2022-10-11T21:17:24.146Z,33.08
2022-10-11T21:20:02.081Z,22.33
2022-10-11T21:22:37.263Z,28.23
2022-10-11T21:25:11.301Z,25.02
2022-10-11T21:27:45.562Z,25.88
2022-10-11T21:30:19.617Z,24.65
2022-10-11T21:32:57.436Z,22.92
2022-10-11T21:35:32.898Z,22.55
2022-10-11T21:38:07.125Z,21.60
2022-10-11T21:40:41.512Z,25.70
2022-10-11T21:43:15.626Z,25.52
2022-10-11T21:45:52.853Z,22.58
2022-10-11T21:48:27.124Z,27.02
2022-10-11T21:51:02.719Z,22.83
2022-10-11T21:53:37.188Z,26.77
2022-10-11T21:56:11.863Z,24.23
2022-10-11T21:58:49.295Z,26.55
2022-10-11T22:01:24.252Z,24.58
2022-10-11T22:03:58.663Z,21.50
2022-10-11T22:06:35.260Z,22.83
2022-10-11T22:09:12.432Z,20.75
2022-10-11T22:11:46.620Z,20.15
2022-10-11T22:14:21.091Z,22.98
2022-10-11T22:16:55.310Z,22.92
2022-10-11T22:19:29.330Z,23.23
2022-10-11T22:22:05.049Z,18.85
2022-10-11T22:24:39.282Z,21.63
2022-10-11T22:27:13.498Z,24.45
2022-10-11T22:29:47.939Z,27.45
2022-10-11T22:32:21.939Z,21.55
2022-10-11T22:34:56.220Z,18.77
2022-10-11T22:37:32.083Z,23.92
2022-10-11T22:40:06.724Z,27.23
2022-10-11T22:42:40.894Z,24.67
2022-10-11T22:45:17.356Z,20.15
2022-10-11T22:47:51.505Z,20.90
2022-10-11T22:50:25.409Z,21.70
2022-10-11T22:53:00.761Z,19.90
2022-10-11T22:55:34.788Z,20.80
2022-10-11T22:58:09.076Z,18.73
2022-10-11T23:00:43.153Z,24.92
2022-10-11T23:03:18.145Z,23.45
2022-10-11T23:05:56.635Z,26.60
2022-10-11T23:08:32.075Z,24.00
2022-10-11T23:11:07.239Z,28.20
2022-10-11T23:13:41.297Z,30.67
2022-10-11T23:16:15.586Z,26.60
2022-10-11T23:18:50.300Z,27.40
2022-10-11T23:21:24.393Z,31.25
2022-10-11T23:23:59.733Z,34.95
2022-10-11T23:26:33.673Z,27.73
2022-10-11T23:29:07.612Z,27.15
2022-10-11T23:31:41.737Z,31.45
2022-10-11T23:34:15.894Z,29.08
2022-10-11T23:36:49.930Z,31.65
2022-10-11T23:39:25.320Z,29.77
2022-10-11T23:41:59.379Z,28.85
2022-10-11T23:44:33.435Z,29.90
2022-10-11T23:47:07.400Z,26.63
2022-10-11T23:49:41.401Z,27.27
2022-10-11T23:52:15.401Z,28.95
2022-10-11T23:54:50.828Z,28.48
2022-10-11T23:57:24.831Z,30.02
2022-10-11T23:59:58.771Z,28.13
